Tenmile, Oregon
Current Conditions -  °F | °C
As of 5:53 PM on Saturday 22 Nov 2014 (Local Time) from KRBG Reporting Station
Few Clouds Few Clouds  
Wind Chill: 46°   Ceiling: Unl
Heat Index: 46°   Visibility: 10mi
Dew Point: 42°   Wind: 0mph
Humidity: 86%   Direction: NA
Pressure: 30.22"   Gusts: NA
Location:  43.1°N, 123.57°W
Report Text: KRBG 230153Z AUTO 00000KT 10SM FEW035 08/06 A3022 RMK AO2 SLP234 T00780056 TSNO $
Loading
Personal Weather Stations






























Interactive Weather Map New forecast layout! Learn more

10-Day Weather Forecast

Advertisements
Track Severe Weather on mobile